Al Manama, Bahrain
Current Conditions -  °F | °C
As of 8:00 AM on Sunday 26 Oct 2014 (Local Time) from OBBI Reporting Station
Clear Clear  
Wind Chill: 84°   Ceiling: Unl
Heat Index: 91°   Visibility: 6mi
Dew Point: 73°   Wind: 9mph
Humidity: 70%   Direction: 300°WNW
Pressure: 29.94"   Gusts: NA
Location:  26.21°N, 50.59°E
Report Text: OBBI 260500Z 30008KT CAVOK 29/23 Q1014 NOSIG
Loading
Personal Weather Stations






























Interactive Weather Map
Tropical Storm Tracking
New forecast layout! Learn more

10-Day Weather Forecast

Advertisements
Track Severe Weather on mobile